Time,TemperatureF,DewpointF,PressureIn,WindDirection,WindDirectionDegrees,WindSpeedMPH,WindSpeedGustMPH,Humidity,HourlyPrecipIn,Conditions,Clouds,dailyrainin,SolarRadiationWatts/m^2,SoftwareType,DateUTC
2013-05-13 00:02:00,61.0,49.0,-100.00,NNW,340,5.0,11.0,65,0.00,,,0.00,0.000000,,2013-05-13 05:02:00,
2013-05-13 00:12:00,61.0,49.0,-100.00,NNW,340,5.0,11.0,65,0.00,,,0.00,0.000000,,2013-05-13 05:12:00,
2013-05-13 00:42:00,59.0,49.0,-100.00,NNW,343,5.0,10.0,69,0.00,,,0.00,0.000000,,2013-05-13 05:42:00,
2013-05-13 00:52:00,59.0,49.0,-100.00,NNW,343,5.0,10.0,69,0.00,,,0.00,0.000000,,2013-05-13 05:52:00,
2013-05-13 01:01:00,59.0,49.0,-100.00,NNW,343,5.0,10.0,69,0.00,,,0.00,0.000000,,2013-05-13 06:01:00,
2013-05-13 01:11:00,59.0,49.0,-100.00,NNW,343,5.0,10.0,69,0.00,,,0.00,0.000000,,2013-05-13 06:11:00,
2013-05-13 01:42:00,57.0,47.0,-100.00,NNW,337,5.0,10.0,70,0.00,,,0.00,0.000000,,2013-05-13 06:42:00,
2013-05-13 01:52:00,57.0,47.0,-100.00,NNW,337,5.0,10.0,70,0.00,,,0.00,0.000000,,2013-05-13 06:52:00,
2013-05-13 02:01:00,57.0,47.0,-100.00,NNW,337,5.0,10.0,70,0.00,,,0.00,0.000000,,2013-05-13 07:01:00,
2013-05-13 02:11:00,57.0,47.0,-100.00,NNW,337,5.0,10.0,70,0.00,,,0.00,0.000000,,2013-05-13 07:11:00,
2013-05-13 02:42:00,55.0,46.0,-100.00,NNW,342,3.0,10.0,72,0.00,,,0.00,0.000000,,2013-05-13 07:42:00,
2013-05-13 02:52:00,55.0,46.0,-100.00,NNW,342,3.0,10.0,72,0.00,,,0.00,0.000000,,2013-05-13 07:52:00,
2013-05-13 03:02:00,55.0,46.0,-100.00,NNW,342,3.0,10.0,72,0.00,,,0.00,0.000000,,2013-05-13 08:02:00,
2013-05-13 03:11:00,55.0,46.0,-100.00,NNW,342,3.0,10.0,72,0.00,,,0.00,0.000000,,2013-05-13 08:11:00,
2013-05-13 03:42:00,53.0,45.0,-100.00,NNW,346,4.0,9.0,73,0.00,,,-99.99,0.000000,,2013-05-13 08:42:00,
2013-05-13 03:52:00,53.0,45.0,-100.00,NNW,346,4.0,9.0,73,0.00,,,-99.99,0.000000,,2013-05-13 08:52:00,
2013-05-13 04:01:00,53.0,45.0,-100.00,NNW,346,4.0,9.0,73,0.00,,,-99.99,0.000000,,2013-05-13 09:01:00,
2013-05-13 04:11:00,53.0,45.0,-100.00,NNW,346,4.0,9.0,73,0.00,,,-99.99,0.000000,,2013-05-13 09:11:00,
2013-05-13 04:42:00,51.0,45.0,-100.00,North,349,3.0,8.0,79,0.00,,,0.00,0.000000,,2013-05-13 09:42:00,
2013-05-13 04:52:00,51.0,45.0,-100.00,North,349,3.0,8.0,79,0.00,,,0.00,0.000000,,2013-05-13 09:52:00,
2013-05-13 05:03:00,51.0,45.0,-100.00,North,349,3.0,8.0,79,0.00,,,0.00,0.000000,,2013-05-13 10:03:00,
2013-05-13 05:12:00,51.0,45.0,-100.00,North,349,3.0,8.0,79,0.00,,,0.00,0.000000,,2013-05-13 10:12:00,
2013-05-13 05:33:00,50.0,44.0,-100.00,NNW,341,3.0,8.0,81,0.00,,,0.00,0.000000,,2013-05-13 10:33:00,
2013-05-13 05:43:00,50.0,44.0,-100.00,NNW,341,3.0,8.0,81,0.00,,,0.00,0.000000,,2013-05-13 10:43:00,
2013-05-13 05:52:00,50.0,44.0,-100.00,NNW,341,3.0,8.0,81,0.00,,,0.00,0.000000,,2013-05-13 10:52:00,
2013-05-13 06:02:00,50.0,44.0,-100.00,NNW,341,3.0,8.0,81,0.00,,,0.00,0.000000,,2013-05-13 11:02:00,
2013-05-13 06:12:00,50.0,44.0,-100.00,NNW,341,3.0,8.0,81,0.00,,,0.00,0.000000,,2013-05-13 11:12:00,
2013-05-13 06:32:00,49.0,43.0,-100.00,NNW,346,4.0,8.0,80,0.00,,,0.00,3.000000,,2013-05-13 11:32:00,
2013-05-13 06:42:00,49.0,43.0,-100.00,NNW,346,4.0,8.0,80,0.00,,,0.00,3.000000,,2013-05-13 11:42:00,
2013-05-13 06:52:00,49.0,43.0,-100.00,NNW,346,4.0,8.0,80,0.00,,,0.00,3.000000,,2013-05-13 11:52:00,
2013-05-13 07:01:00,49.0,43.0,-100.00,NNW,346,4.0,8.0,80,0.00,,,0.00,3.000000,,2013-05-13 12:01:00,
2013-05-13 07:11:00,49.0,43.0,-100.00,NNW,346,4.0,8.0,80,0.00,,,0.00,3.000000,,2013-05-13 12:11:00,
2013-05-13 07:42:00,54.0,43.0,-100.00,North,353,4.0,8.0,67,0.00,,,0.00,57.000000,,2013-05-13 12:42:00,
2013-05-13 07:52:00,54.0,43.0,-100.00,North,353,4.0,8.0,67,0.00,,,0.00,57.000000,,2013-05-13 12:52:00,
2013-05-13 08:01:00,54.0,43.0,-100.00,North,353,4.0,8.0,67,0.00,,,0.00,57.000000,,2013-05-13 13:01:00,
2013-05-13 08:11:00,54.0,43.0,-100.00,North,353,4.0,8.0,67,0.00,,,0.00,57.000000,,2013-05-13 13:11:00,
2013-05-13 08:42:00,63.0,43.0,-100.00,NNE,20,4.0,12.0,48,0.00,,,0.00,392.000000,,2013-05-13 13:42:00,
2013-05-13 08:52:00,63.0,43.0,-100.00,NNE,20,4.0,12.0,48,0.00,,,0.00,392.000000,,2013-05-13 13:52:00,
2013-05-13 09:02:00,63.0,43.0,-100.00,NNE,20,4.0,12.0,48,0.00,,,0.00,392.000000,,2013-05-13 14:02:00,
2013-05-13 09:11:00,63.0,43.0,-100.00,NNE,20,4.0,12.0,48,0.00,,,0.00,392.000000,,2013-05-13 14:11:00,
2013-05-13 09:42:00,67.0,42.0,-100.00,NE,51,4.0,11.0,40,0.00,,,0.00,624.000000,,2013-05-13 14:42:00,
2013-05-13 09:52:00,67.0,42.0,-100.00,NE,51,4.0,11.0,40,0.00,,,0.00,624.000000,,2013-05-13 14:52:00,
2013-05-13 10:01:00,67.0,42.0,-100.00,NE,51,4.0,11.0,40,0.00,,,0.00,624.000000,,2013-05-13 15:01:00,
2013-05-13 10:11:00,67.0,42.0,-100.00,NE,51,4.0,11.0,40,0.00,,,0.00,624.000000,,2013-05-13 15:11:00,
2013-05-13 10:42:00,70.0,39.0,-100.00,North,11,6.0,14.0,32,0.00,,,0.00,827.000000,,2013-05-13 15:42:00,
2013-05-13 10:53:00,70.0,39.0,-100.00,North,11,6.0,14.0,32,0.00,,,0.00,827.000000,,2013-05-13 15:53:00,
2013-05-13 11:03:00,70.0,39.0,-100.00,North,11,6.0,14.0,32,0.00,,,0.00,827.000000,,2013-05-13 16:03:00,
2013-05-13 11:11:00,70.0,39.0,-100.00,North,11,6.0,14.0,32,0.00,,,0.00,827.000000,,2013-05-13 16:11:00,
2013-05-13 11:34:00,72.0,37.0,-100.00,North,351,5.0,12.0,28,0.00,,,0.00,985.000000,,2013-05-13 16:34:00,
2013-05-13 11:43:00,72.0,37.0,-100.00,North,351,5.0,12.0,28,0.00,,,0.00,985.000000,,2013-05-13 16:43:00,
2013-05-13 11:53:00,72.0,37.0,-100.00,North,351,5.0,12.0,28,0.00,,,0.00,985.000000,,2013-05-13 16:53:00,
2013-05-13 12:02:00,72.0,37.0,-100.00,North,351,5.0,12.0,28,0.00,,,0.00,985.000000,,2013-05-13 17:02:00,
2013-05-13 12:12:00,72.0,37.0,-100.00,North,351,5.0,12.0,28,0.00,,,0.00,985.000000,,2013-05-13 17:12:00,
2013-05-13 12:42:00,74.0,36.0,-100.00,North,4,6.0,14.0,25,0.00,,,0.00,1079.000000,,2013-05-13 17:42:00,
2013-05-13 12:54:00,74.0,36.0,-100.00,North,4,6.0,14.0,25,0.00,,,0.00,1079.000000,,2013-05-13 17:54:00,
2013-05-13 13:03:00,74.0,36.0,-100.00,North,4,6.0,14.0,25,0.00,,,0.00,1079.000000,,2013-05-13 18:03:00,
2013-05-13 13:12:00,74.0,36.0,-100.00,North,4,6.0,14.0,25,0.00,,,0.00,1079.000000,,2013-05-13 18:12:00,
2013-05-13 13:42:00,76.0,34.0,-100.00,NNE,18,5.0,14.0,22,0.00,,,-99.99,1103.000000,,2013-05-13 18:42:00,
2013-05-13 13:52:00,76.0,34.0,-100.00,NNE,18,5.0,14.0,22,0.00,,,-99.99,1103.000000,,2013-05-13 18:52:00,
2013-05-13 14:01:00,76.0,34.0,-100.00,NNE,18,5.0,14.0,22,0.00,,,-99.99,1103.000000,,2013-05-13 19:01:00,
2013-05-13 14:11:00,76.0,34.0,-100.00,NNE,18,5.0,14.0,22,0.00,,,-99.99,1103.000000,,2013-05-13 19:11:00,
2013-05-13 14:44:00,78.0,37.0,-100.00,NNE,21,5.0,16.0,23,0.00,,,0.00,1063.000000,,2013-05-13 19:44:00,
2013-05-13 14:53:00,78.0,37.0,-100.00,NNE,21,5.0,16.0,23,0.00,,,0.00,1063.000000,,2013-05-13 19:53:00,
2013-05-13 15:02:00,78.0,37.0,-100.00,NNE,21,5.0,16.0,23,0.00,,,0.00,1063.000000,,2013-05-13 20:02:00,
2013-05-13 15:11:00,78.0,37.0,-100.00,NNE,21,5.0,16.0,23,0.00,,,0.00,1063.000000,,2013-05-13 20:11:00,
2013-05-13 15:34:00,79.0,37.0,-100.00,NNW,340,6.0,13.0,22,0.00,,,0.00,959.000000,,2013-05-13 20:34:00,
2013-05-13 15:44:00,79.0,37.0,-100.00,NNW,340,6.0,13.0,22,0.00,,,0.00,959.000000,,2013-05-13 20:44:00,
2013-05-13 15:53:00,79.0,37.0,-100.00,NNW,340,6.0,13.0,22,0.00,,,0.00,959.000000,,2013-05-13 20:53:00,
2013-05-13 16:03:00,79.0,37.0,-100.00,NNW,340,6.0,13.0,22,0.00,,,0.00,959.000000,,2013-05-13 21:03:00,
2013-05-13 16:14:00,79.0,37.0,-100.00,NNW,340,6.0,13.0,22,0.00,,,0.00,959.000000,,2013-05-13 21:14:00,
2013-05-13 16:44:00,79.0,38.0,-100.00,NNW,338,8.0,18.0,23,0.00,,,0.00,795.000000,,2013-05-13 21:44:00,
2013-05-13 16:53:00,79.0,38.0,-100.00,NNW,338,8.0,18.0,23,0.00,,,0.00,795.000000,,2013-05-13 21:53:00,
2013-05-13 17:02:00,79.0,38.0,-100.00,NNW,338,8.0,18.0,23,0.00,,,0.00,795.000000,,2013-05-13 22:02:00,
2013-05-13 17:12:00,79.0,38.0,-100.00,NNW,338,8.0,18.0,23,0.00,,,0.00,795.000000,,2013-05-13 22:12:00,
2013-05-13 17:43:00,79.0,39.0,-100.00,NNW,334,5.0,16.0,24,0.00,,,0.00,585.000000,,2013-05-13 22:43:00,
2013-05-13 17:52:00,79.0,39.0,-100.00,NNW,334,5.0,16.0,24,0.00,,,0.00,585.000000,,2013-05-13 22:52:00,
2013-05-13 18:02:00,79.0,39.0,-100.00,NNW,334,5.0,16.0,24,0.00,,,0.00,585.000000,,2013-05-13 23:02:00,
2013-05-13 18:12:00,79.0,39.0,-100.00,NNW,334,5.0,16.0,24,0.00,,,0.00,585.000000,,2013-05-13 23:12:00,
2013-05-13 18:42:00,74.0,40.0,-100.00,NNW,338,6.0,16.0,29,0.00,,,0.00,259.000000,,2013-05-13 23:42:00,
2013-05-13 18:54:00,74.0,40.0,-100.00,NNW,338,6.0,16.0,29,0.00,,,0.00,259.000000,,2013-05-13 23:54:00,
2013-05-13 19:02:00,74.0,40.0,-100.00,NNW,338,6.0,16.0,29,0.00,,,0.00,259.000000,,2013-05-14 00:02:00,
2013-05-13 19:12:00,74.0,40.0,-100.00,NNW,338,6.0,16.0,29,0.00,,,0.00,259.000000,,2013-05-14 00:12:00,
2013-05-13 19:42:00,70.0,43.0,-100.00,NNW,337,3.0,11.0,38,0.00,,,0.00,29.000000,,2013-05-14 00:42:00,
2013-05-13 19:52:00,70.0,43.0,-100.00,NNW,337,3.0,11.0,38,0.00,,,0.00,29.000000,,2013-05-14 00:52:00,
2013-05-13 20:01:00,70.0,43.0,-100.00,NNW,337,3.0,11.0,38,0.00,,,0.00,29.000000,,2013-05-14 01:01:00,
2013-05-13 20:11:00,70.0,43.0,-100.00,NNW,337,3.0,11.0,38,0.00,,,0.00,29.000000,,2013-05-14 01:11:00,
2013-05-13 20:32:00,63.0,44.0,-100.00,NNW,332,1.0,5.0,49,0.00,,,0.00,3.000000,,2013-05-14 01:32:00,
2013-05-13 20:43:00,63.0,44.0,-100.00,NNW,332,1.0,5.0,49,0.00,,,0.00,3.000000,,2013-05-14 01:43:00,
2013-05-13 20:53:00,63.0,44.0,-100.00,NNW,332,1.0,5.0,49,0.00,,,0.00,3.000000,,2013-05-14 01:53:00,
2013-05-13 21:02:00,63.0,44.0,-100.00,NNW,332,1.0,5.0,49,0.00,,,0.00,3.000000,,2013-05-14 02:02:00,
2013-05-13 21:11:00,63.0,44.0,-100.00,NNW,332,1.0,5.0,49,0.00,,,0.00,3.000000,,2013-05-14 02:11:00,
2013-05-13 21:32:00,62.0,45.0,-100.00,NNW,337,3.0,6.0,54,0.00,,,0.00,0.000000,,2013-05-14 02:32:00,
2013-05-13 21:42:00,62.0,45.0,-100.00,NNW,337,3.0,6.0,54,0.00,,,0.00,0.000000,,2013-05-14 02:42:00,
2013-05-13 21:52:00,62.0,45.0,-100.00,NNW,337,3.0,6.0,54,0.00,,,0.00,0.000000,,2013-05-14 02:52:00,
2013-05-13 22:01:00,62.0,45.0,-100.00,NNW,337,3.0,6.0,54,0.00,,,0.00,0.000000,,2013-05-14 03:01:00,
2013-05-13 22:11:00,62.0,45.0,-100.00,NNW,337,3.0,6.0,54,0.00,,,0.00,0.000000,,2013-05-14 03:11:00,
2013-05-13 22:43:00,59.0,46.0,-100.00,NNW,335,3.0,5.0,61,0.00,,,0.00,0.000000,,2013-05-14 03:43:00,
2013-05-13 22:53:00,59.0,46.0,-100.00,NNW,335,3.0,5.0,61,0.00,,,0.00,0.000000,,2013-05-14 03:53:00,
2013-05-13 23:02:00,59.0,46.0,-100.00,NNW,335,3.0,5.0,61,0.00,,,0.00,0.000000,,2013-05-14 04:02:00,
2013-05-13 23:13:00,59.0,46.0,-100.00,NNW,335,3.0,5.0,61,0.00,,,0.00,0.000000,,2013-05-14 04:13:00,
2013-05-13 23:32:00,58.0,48.0,-100.00,NNW,329,2.0,7.0,69,0.00,,,0.00,0.000000,,2013-05-14 04:32:00,
2013-05-13 23:43:00,58.0,48.0,-100.00,NNW,329,2.0,7.0,69,0.00,,,0.00,0.000000,,2013-05-14 04:43:00,
2013-05-13 23:53:00,58.0,48.0,-100.00,NNW,329,2.0,7.0,69,0.00,,,0.00,0.000000,,2013-05-14 04:53:00,